Observation data for Seymour on 08/06/2020      Previous  Date       Current Mesonet Observations  Soil Data  Daily Summary Page  Observations in Plain Language
KSE1 060500Z 10012KT 26/20 A2994 RMK A01 T02610202  RH  074%=      5-min Rain = 0
KSE1 060505Z 10012KT 26/20 A2994 RMK A01 T02600202  RH  074%=      5-min Rain = 0
KSE1 060510Z 10010KT 26/20 A2994 RMK A01 T02590202  RH  075%=      5-min Rain = 0
KSE1 060515Z 10010KT 26/20 A2994 RMK A01 T02580202  RH  075%=      5-min Rain = 0
KSE1 060520Z 10010KT 26/20 A2994 RMK A01 T02580202  RH  076%=      5-min Rain = 0
KSE1 060525Z 10010KT 26/20 A2993 RMK A01 T02570201  RH  076%=      5-min Rain = 0
KSE1 060530Z 10010KT 26/20 A2993 RMK A01 T02560202  RH  076%=      5-min Rain = 0
KSE1 060535Z 09011KT 26/20 A2993 RMK A01 T02560202  RH  076%=      5-min Rain = 0
KSE1 060540Z 09010KT 26/20 A2994 RMK A01 T02560201  RH  076%=      5-min Rain = 0
KSE1 060545Z 09011KT 26/20 A2994 RMK A01 T02560202  RH  076%=      5-min Rain = 0
KSE1 060550Z 09011KT 26/20 A2993 RMK A01 T02550201  RH  077%=      5-min Rain = 0
KSE1 060555Z 09009G14KT 25/20 A2993 RMK A01 T02540201  RH  077%=      5-min Rain = 0
KSE1 060600Z 09010KT 25/20 A2993 RMK A01 T02530201  RH  078%=      5-min Rain = 0
KSE1 060605Z 09010KT 25/20 A2993 RMK A01 T02530202  RH  078%=      5-min Rain = 0
KSE1 060610Z 09010KT 25/20 A2993 RMK A01 T02520201  RH  078%=      5-min Rain = 0
KSE1 060615Z 09010KT 25/20 A2993 RMK A01 T02520201  RH  078%=      5-min Rain = 0
KSE1 060620Z 09010KT 25/20 A2993 RMK A01 T02520201  RH  078%=      5-min Rain = 0
KSE1 060625Z 09010KT 25/20 A2993 RMK A01 T02510201  RH  078%=      5-min Rain = 0
KSE1 060630Z 09010KT 25/20 A2993 RMK A01 T02510202  RH  079%=      5-min Rain = 0
KSE1 060635Z 09010KT 25/20 A2993 RMK A01 T02510202  RH  079%=      5-min Rain = 0
KSE1 060640Z 09010KT 25/20 A2993 RMK A01 T02500202  RH  079%=      5-min Rain = 0
KSE1 060645Z 10010KT 25/20 A2993 RMK A01 T02490202  RH  079%=      5-min Rain = 0
KSE1 060650Z 10010KT 25/20 A2993 RMK A01 T02490202  RH  080%=      5-min Rain = 0
KSE1 060655Z 09010KT 25/20 A2993 RMK A01 T02490202  RH  080%=      5-min Rain = 0
KSE1 060700Z 09009KT 25/20 A2993 RMK A01 T02470202  RH  080%=      5-min Rain = 0
KSE1 060705Z 10009KT 25/20 A2993 RMK A01 T02470202  RH  081%=      5-min Rain = 0
KSE1 060710Z 10009KT 25/20 A2993 RMK A01 T02460202  RH  081%=      5-min Rain = 0
KSE1 060715Z 10009KT 25/20 A2993 RMK A01 T02460202  RH  081%=      5-min Rain = 0
KSE1 060720Z 10008KT 24/20 A2993 RMK A01 T02440202  RH  082%=      5-min Rain = 0
KSE1 060725Z 10009KT 25/20 A2993 RMK A01 T02450202  RH  082%=      5-min Rain = 0
KSE1 060730Z 10008KT 24/20 A2993 RMK A01 T02440202  RH  082%=      5-min Rain = 0
KSE1 060735Z 10008KT 24/20 A2993 RMK A01 T02430202  RH  082%=      5-min Rain = 0
KSE1 060740Z 10008KT 24/20 A2993 RMK A01 T02430202  RH  083%=      5-min Rain = 0
KSE1 060745Z 09008KT 24/20 A2993 RMK A01 T02430202  RH  083%=      5-min Rain = 0
KSE1 060750Z 09009KT 24/20 A2993 RMK A01 T02430202  RH  083%=      5-min Rain = 0
KSE1 060755Z 09008KT 24/20 A2993 RMK A01 T02420202  RH  083%=      5-min Rain = 0
KSE1 060800Z 09008KT 24/20 A2993 RMK A01 T02420202  RH  083%=      5-min Rain = 0
KSE1 060805Z 09008KT 24/20 A2993 RMK A01 T02430202  RH  083%=      5-min Rain = 0
KSE1 060810Z 10009KT 24/20 A2994 RMK A01 T02420203  RH  083%=      5-min Rain = 0
KSE1 060815Z 10008KT 24/20 A2993 RMK A01 T02410203  RH  084%=      5-min Rain = 0
KSE1 060820Z 10008KT 24/20 A2993 RMK A01 T02410202  RH  084%=      5-min Rain = 0
KSE1 060825Z 10008KT 24/20 A2993 RMK A01 T02400202  RH  084%=      5-min Rain = 0
KSE1 060830Z 10008KT 24/20 A2993 RMK A01 T02400203  RH  085%=      5-min Rain = 0
KSE1 060835Z 10008KT 24/20 A2994 RMK A01 T02400203  RH  085%=      5-min Rain = 0
KSE1 060840Z 10008KT 24/20 A2994 RMK A01 T02390203  RH  085%=      5-min Rain = 0
KSE1 060845Z 10008KT 24/20 A2994 RMK A01 T02390203  RH  085%=      5-min Rain = 0
KSE1 060850Z 10008KT 24/20 A2994 RMK A01 T02390203  RH  085%=      5-min Rain = 0
KSE1 060855Z 11007KT 24/20 A2994 RMK A01 T02380203  RH  085%=      5-min Rain = 0
KSE1 060900Z 12006KT 24/20 A2994 RMK A01 T02370203  RH  086%=      5-min Rain = 0
KSE1 060905Z 11007KT 24/20 A2994 RMK A01 T02360203  RH  087%=      5-min Rain = 0
KSE1 060910Z 11008KT 24/20 A2993 RMK A01 T02360203  RH  087%=      5-min Rain = 0
KSE1 060915Z 12007KT 24/20 A2994 RMK A01 T02370204  RH  087%=      5-min Rain = 0
KSE1 060920Z 12009KT 24/21 A2994 RMK A01 T02380205  RH  086%=      5-min Rain = 0
KSE1 060925Z 12008KT 24/21 A2993 RMK A01 T02400205  RH  086%=      5-min Rain = 0
KSE1 060930Z 12008KT 24/21 A2993 RMK A01 T02390205  RH  086%=      5-min Rain = 0
KSE1 060935Z 12009KT 24/21 A2993 RMK A01 T02400205  RH  086%=      5-min Rain = 0
KSE1 060940Z 13009KT 24/21 A2993 RMK A01 T02410206  RH  086%=      5-min Rain = 0
KSE1 060945Z 12010G15KT 24/21 A2993 RMK A01 T02410206  RH  086%=      5-min Rain = 0
KSE1 060950Z 12010KT 24/21 A2993 RMK A01 T02420206  RH  085%=      5-min Rain = 0
KSE1 060955Z 13010KT 24/21 A2993 RMK A01 T02420206  RH  085%=      5-min Rain = 0
KSE1 061000Z 13009KT 24/21 A2993 RMK A01 T02420206  RH  085%=      5-min Rain = 0
KSE1 061005Z 12011KT 24/21 A2993 RMK A01 T02420206  RH  085%=      5-min Rain = 0
KSE1 061010Z 13010KT 24/21 A2993 RMK A01 T02410206  RH  086%=      5-min Rain = 0
KSE1 061015Z 13011KT 24/21 A2993 RMK A01 T02410206  RH  086%=      5-min Rain = 0
KSE1 061020Z 13011KT 24/21 A2993 RMK A01 T02410206  RH  086%=      5-min Rain = 0
KSE1 061025Z 13010KT 24/21 A2993 RMK A01 T02400206  RH  086%=      5-min Rain = 0
KSE1 061030Z 13010KT 24/21 A2993 RMK A01 T02400206  RH  086%=      5-min Rain = 0
KSE1 061035Z 13010G15KT 24/21 A2993 RMK A01 T02390206  RH  086%=      5-min Rain = 0
KSE1 061040Z 13010KT 24/21 A2993 RMK A01 T02390205  RH  086%=      5-min Rain = 0
KSE1 061045Z 14008KT 24/21 A2993 RMK A01 T02390205  RH  086%=      5-min Rain = 0
KSE1 061050Z 14008KT 24/20 A2993 RMK A01 T02390204  RH  086%=      5-min Rain = 0
KSE1 061055Z 13009KT 24/20 A2993 RMK A01 T02380204  RH  087%=      5-min Rain = 0
KSE1 061100Z 14008KT 24/20 A2994 RMK A01 T02380204  RH  086%=      5-min Rain = 0
KSE1 061105Z 13009KT 24/20 A2994 RMK A01 T02370204  RH  086%=      5-min Rain = 0
KSE1 061110Z 13010KT 24/20 A2994 RMK A01 T02370203  RH  087%=      5-min Rain = 0
KSE1 061115Z 14006KT 24/20 A2994 RMK A01 T02370203  RH  086%=      5-min Rain = 0
KSE1 061120Z 13008KT 24/20 A2994 RMK A01 T02360203  RH  087%=      5-min Rain = 0
KSE1 061125Z 13009KT 24/20 A2994 RMK A01 T02360203  RH  087%=      5-min Rain = 0
KSE1 061130Z 14008KT 24/20 A2994 RMK A01 T02350202  RH  086%=      5-min Rain = 0
KSE1 061135Z 14008KT 24/20 A2994 RMK A01 T02370201  RH  085%=      5-min Rain = 0
KSE1 061140Z 14009KT 24/20 A2993 RMK A01 T02370200  RH  085%=      5-min Rain = 0
KSE1 061145Z 15009KT 24/20 A2994 RMK A01 T02370200  RH  084%=      5-min Rain = 0
KSE1 061150Z 14009KT 24/20 A2994 RMK A01 T02380199  RH  084%=      5-min Rain = 0
KSE1 061155Z 14009KT 24/20 A2994 RMK A01 T02370198  RH  084%=      5-min Rain = 0
KSE1 061200Z 14009KT 24/20 A2994 RMK A01 T02370197  RH  083%=      5-min Rain = 0
KSE1 061205Z 14009KT 24/20 A2994 RMK A01 T02370197  RH  083%=      5-min Rain = 0
KSE1 061210Z 14009KT 24/20 A2994 RMK A01 T02370196  RH  082%=      5-min Rain = 0
KSE1 061215Z 15009KT 24/20 A2994 RMK A01 T02390195  RH  081%=      5-min Rain = 0
KSE1 061220Z 15007KT 24/19 A2994 RMK A01 T02380194  RH  081%=      5-min Rain = 0
KSE1 061225Z 15007KT 24/19 A2994 RMK A01 T02390193  RH  080%=      5-min Rain = 0
KSE1 061230Z 15008KT 24/19 A2994 RMK A01 T02410192  RH  079%=      5-min Rain = 0
KSE1 061235Z 15008KT 24/19 A2994 RMK A01 T02420192  RH  078%=      5-min Rain = 0
KSE1 061240Z 15009KT 24/19 A2994 RMK A01 T02430192  RH  077%=      5-min Rain = 0
KSE1 061245Z 15008KT 24/19 A2995 RMK A01 T02440192  RH  077%=      5-min Rain = 0
KSE1 061250Z 15009KT 25/19 A2995 RMK A01 T02460191  RH  076%=      5-min Rain = 0
KSE1 061255Z 15009KT 25/19 A2995 RMK A01 T02470190  RH  075%=      5-min Rain = 0
KSE1 061300Z 15009KT 25/19 A2994 RMK A01 T02490190  RH  074%=      5-min Rain = 0
KSE1 061305Z 15009KT 25/19 A2994 RMK A01 T02500189  RH  072%=      5-min Rain = 0
KSE1 061310Z 15009G14KT 25/19 A2994 RMK A01 T02530188  RH  071%=      5-min Rain = 0
KSE1 061315Z 15009G14KT 26/19 A2994 RMK A01 T02550188  RH  070%=      5-min Rain = 0
KSE1 061320Z 15010KT 26/19 A2994 RMK A01 T02570187  RH  069%=      5-min Rain = 0
KSE1 061325Z 16009KT 26/19 A2994 RMK A01 T02600187  RH  068%=      5-min Rain = 0
KSE1 061330Z 16010KT 26/19 A2994 RMK A01 T02630186  RH  066%=      5-min Rain = 0
KSE1 061335Z 15010KT 26/19 A2994 RMK A01 T02640186  RH  065%=      5-min Rain = 0
KSE1 061340Z 16009G15KT 27/19 A2994 RMK A01 T02670186  RH  065%=      5-min Rain = 0
KSE1 061345Z 17010KT 27/19 A2995 RMK A01 T02700186  RH  063%=      5-min Rain = 0
KSE1 061350Z 17010KT 27/19 A2994 RMK A01 T02730185  RH  062%=      5-min Rain = 0
KSE1 061355Z 17010KT 28/18 A2994 RMK A01 T02770184  RH  060%=      5-min Rain = 0
KSE1 061400Z 17010KT 28/18 A2994 RMK A01 T02800184  RH  059%=      5-min Rain = 0
KSE1 061405Z 18010KT 28/18 A2995 RMK A01 T02840183  RH  057%=      5-min Rain = 0
KSE1 061410Z 18010KT 29/18 A2995 RMK A01 T02900179  RH  054%=      5-min Rain = 0
KSE1 061415Z 18010G16KT 29/18 A2995 RMK A01 T02930177  RH  052%=      5-min Rain = 0
KSE1 061420Z 19010G16KT 30/18 A2995 RMK A01 T02960176  RH  051%=      5-min Rain = 0
KSE1 061425Z 18010G15KT 30/18 A2995 RMK A01 T02990176  RH  050%=      5-min Rain = 0
KSE1 061430Z 18012G17KT 30/18 A2995 RMK A01 T03000175  RH  049%=      5-min Rain = 0
KSE1 061435Z 19012KT 30/18 A2995 RMK A01 T03010175  RH  049%=      5-min Rain = 0
KSE1 061440Z 19012KT 30/18 A2995 RMK A01 T03020175  RH  049%=      5-min Rain = 0
KSE1 061445Z 20012G17KT 30/18 A2995 RMK A01 T03020176  RH  049%=      5-min Rain = 0
KSE1 061450Z 19010KT 31/18 A2996 RMK A01 T03050178  RH  049%=      5-min Rain = 0
KSE1 061455Z 19011KT 31/18 A2996 RMK A01 T03090177  RH  048%=      5-min Rain = 0
KSE1 061500Z 19010KT 31/18 A2996 RMK A01 T03100178  RH  048%=      5-min Rain = 0
KSE1 061505Z 19012KT 31/18 A2996 RMK A01 T03130177  RH  047%=      5-min Rain = 0
KSE1 061510Z 20011KT 32/18 A2996 RMK A01 T03150177  RH  046%=      5-min Rain = 0
KSE1 061515Z 20011KT 32/18 A2996 RMK A01 T03160177  RH  046%=      5-min Rain = 0
KSE1 061520Z 19010KT 32/18 A2996 RMK A01 T03210179  RH  045%=      5-min Rain = 0
KSE1 061525Z 19011KT 32/18 A2996 RMK A01 T03220176  RH  044%=      5-min Rain = 0
KSE1 061530Z 20010KT 32/18 A2996 RMK A01 T03190177  RH  045%=      5-min Rain = 0
KSE1 061535Z 20010KT 32/18 A2996 RMK A01 T03210178  RH  045%=      5-min Rain = 0
KSE1 061540Z 19010KT 33/18 A2996 RMK A01 T03250178  RH  044%=      5-min Rain = 0
KSE1 061545Z 19009KT 33/18 A2996 RMK A01 T03280180  RH  044%=      5-min Rain = 0
KSE1 061550Z 19011KT 33/18 A2996 RMK A01 T03300176  RH  042%=      5-min Rain = 0
KSE1 061555Z 19009G14KT 33/18 A2996 RMK A01 T03320179  RH  042%=      5-min Rain = 0
KSE1 061600Z 18009G15KT 34/18 A2996 RMK A01 T03350177  RH  041%=      5-min Rain = 0
KSE1 061605Z 18009KT 34/18 A2996 RMK A01 T03380179  RH  041%=      5-min Rain = 0
KSE1 061610Z 19009KT 34/18 A2996 RMK A01 T03370177  RH  041%=      5-min Rain = 0
KSE1 061615Z 19011G16KT 34/18 A2996 RMK A01 T03420176  RH  039%=      5-min Rain = 0
KSE1 061620Z 19010G15KT 34/18 A2996 RMK A01 T03420175  RH  039%=      5-min Rain = 0
KSE1 061625Z 19012G17KT 34/17 A2996 RMK A01 T03420171  RH  038%=      5-min Rain = 0
KSE1 061630Z 18014G22KT 34/17 A2996 RMK A01 T03430168  RH  037%=      5-min Rain = 0
KSE1 061635Z 19013KT 34/17 A2997 RMK A01 T03410168  RH  038%=      5-min Rain = 0
KSE1 061640Z 18011KT 33/17 A2997 RMK A01 T03340166  RH  038%=      5-min Rain = 0
KSE1 061645Z 18012KT 35/17 A2996 RMK A01 T03460166  RH  036%=      5-min Rain = 0
KSE1 061650Z 19012G17KT 35/17 A2996 RMK A01 T03460165  RH  036%=      5-min Rain = 0
KSE1 061655Z 18013KT 35/16 A2996 RMK A01 T03510161  RH  034%=      5-min Rain = 0
KSE1 061700Z 18012KT 36/16 A2996 RMK A01 T03560164  RH  034%=      5-min Rain = 0
KSE1 061705Z 18015KT 35/16 A2996 RMK A01 T03520156  RH  033%=      5-min Rain = 0
KSE1 061710Z 19010G16KT 34/16 A2996 RMK A01 T03410156  RH  035%=      5-min Rain = 0
KSE1 061715Z 19010G16KT 34/16 A2996 RMK A01 T03390156  RH  035%=      5-min Rain = 0
KSE1 061720Z 19010KT 34/16 A2996 RMK A01 T03370157  RH  036%=      5-min Rain = 0
KSE1 061725Z 20011G17KT 33/16 A2996 RMK A01 T03330156  RH  036%=      5-min Rain = 0
KSE1 061730Z 20011KT 33/16 A2996 RMK A01 T03290161  RH  038%=      5-min Rain = 0
KSE1 061735Z 21010KT 31/18 A2996 RMK A01 T03060179  RH  049%=      5-min Rain = 0.01
KSE1 061740Z 19008KT 30/19 A2996 RMK A01 T03000186  RH  053%=      5-min Rain = 0
KSE1 061745Z 19008G13KT 31/18 A2996 RMK A01 T03080184  RH  050%=      5-min Rain = 0
KSE1 061750Z 20008KT 31/18 A2996 RMK A01 T03120180  RH  048%=      5-min Rain = 0
KSE1 061755Z 20008KT 32/18 A2996 RMK A01 T03160181  RH  047%=      5-min Rain = 0
KSE1 061800Z 19008KT 32/18 A2996 RMK A01 T03210180  RH  046%=      5-min Rain = 0
KSE1 061805Z 20007KT 33/18 A2995 RMK A01 T03270184  RH  045%=      5-min Rain = 0
KSE1 061810Z 21009KT 33/18 A2995 RMK A01 T03270180  RH  044%=      5-min Rain = 0
KSE1 061815Z 20009G14KT 33/18 A2995 RMK A01 T03250176  RH  043%=      5-min Rain = 0
KSE1 061820Z 19008KT 32/18 A2995 RMK A01 T03230179  RH  045%=      5-min Rain = 0
KSE1 061825Z 20007KT 33/17 A2995 RMK A01 T03260174  RH  042%=      5-min Rain = 0
KSE1 061830Z 20006KT 32/19 A2995 RMK A01 T03240185  RH  046%=      5-min Rain = 0.01
KSE1 061835Z 19007G15KT 33/19 A2995 RMK A01 T03340189  RH  045%=      5-min Rain = 0
KSE1 061840Z 18009KT 35/18 A2995 RMK A01 T03500179  RH  038%=      5-min Rain = 0
KSE1 061845Z 19008G13KT 35/17 A2995 RMK A01 T03480172  RH  037%=      5-min Rain = 0
KSE1 061850Z 18010G16KT 34/17 A2994 RMK A01 T03430166  RH  037%=      5-min Rain = 0
KSE1 061855Z 17011KT 34/17 A2994 RMK A01 T03430165  RH  036%=      5-min Rain = 0
KSE1 061900Z 16011G16KT 35/17 A2993 RMK A01 T03470165  RH  036%=      5-min Rain = 0
KSE1 061905Z 16010KT 35/17 A2993 RMK A01 T03520165  RH  035%=      5-min Rain = 0
KSE1 061910Z 17008KT 37/17 A2993 RMK A01 T03660171  RH  033%=      5-min Rain = 0
KSE1 061915Z 20010G16KT 37/17 A2993 RMK A01 T03690171  RH  033%=      5-min Rain = 0
KSE1 061920Z 20012G19KT 36/17 A2993 RMK A01 T03630168  RH  033%=      5-min Rain = 0
KSE1 061925Z 16014G19KT 37/16 A2993 RMK A01 T03650162  RH  032%=      5-min Rain = 0
KSE1 061930Z 15012KT 37/16 A2992 RMK A01 T03730156  RH  029%=      5-min Rain = 0
KSE1 061935Z 14012KT 37/16 A2992 RMK A01 T03740162  RH  030%=      5-min Rain = 0
KSE1 061940Z 12013KT 37/16 A2992 RMK A01 T03700162  RH  031%=      5-min Rain = 0
KSE1 061945Z 14013G19KT 36/16 A2992 RMK A01 T03590159  RH  032%=      5-min Rain = 0
KSE1 061950Z 16012G17KT 36/16 A2991 RMK A01 T03580158  RH  032%=      5-min Rain = 0
KSE1 061955Z 14011G16KT 36/16 A2991 RMK A01 T03600160  RH  032%=      5-min Rain = 0
KSE1 062000Z 15012KT 37/16 A2991 RMK A01 T03740157  RH  029%=      5-min Rain = 0
KSE1 062005Z 15010G16KT 38/16 A2991 RMK A01 T03810158  RH  028%=      5-min Rain = 0
KSE1 062010Z 14011G17KT 39/16 A2991 RMK A01 T03850157  RH  028%=      5-min Rain = 0
KSE1 062015Z 14011G18KT 39/16 A2991 RMK A01 T03860159  RH  028%=      5-min Rain = 0
KSE1 062020Z 14010KT 37/16 A2991 RMK A01 T03730159  RH  030%=      5-min Rain = 0
KSE1 062025Z 16007KT 37/16 A2992 RMK A01 T03660159  RH  031%=      5-min Rain = 0
KSE1 062030Z 17009G14KT 37/16 A2992 RMK A01 T03660155  RH  030%=      5-min Rain = 0
KSE1 062035Z 19008KT 36/15 A2992 RMK A01 T03640154  RH  030%=      5-min Rain = 0
KSE1 062040Z 20010G15KT 36/15 A2992 RMK A01 T03630153  RH  030%=      5-min Rain = 0
KSE1 062045Z 19006KT 36/16 A2992 RMK A01 T03600159  RH  032%=      5-min Rain = 0
KSE1 062050Z 16008G14KT 36/16 A2992 RMK A01 T03620160  RH  032%=      5-min Rain = 0
KSE1 062055Z 17011KT 36/16 A2991 RMK A01 T03630161  RH  032%=      5-min Rain = 0
KSE1 062100Z 16010KT 36/16 A2991 RMK A01 T03630162  RH  032%=      5-min Rain = 0
KSE1 062105Z 17008KT 36/17 A2991 RMK A01 T03640166  RH  033%=      5-min Rain = 0
KSE1 062110Z 15010KT 37/17 A2991 RMK A01 T03730166  RH  031%=      5-min Rain = 0
KSE1 062115Z 18008KT 37/16 A2991 RMK A01 T03730164  RH  031%=      5-min Rain = 0
KSE1 062120Z 19007KT 37/16 A2991 RMK A01 T03700162  RH  031%=      5-min Rain = 0
KSE1 062125Z 17009KT 37/16 A2991 RMK A01 T03700161  RH  030%=      5-min Rain = 0
KSE1 062130Z 15007KT 37/16 A2991 RMK A01 T03730162  RH  030%=      5-min Rain = 0
KSE1 062135Z 16008KT 38/16 A2991 RMK A01 T03780161  RH  029%=      5-min Rain = 0
KSE1 062140Z 16008G16KT 39/16 A2991 RMK A01 T03860162  RH  028%=      5-min Rain = 0
KSE1 062145Z 17012G17KT 39/16 A2991 RMK A01 T03850157  RH  027%=      5-min Rain = 0
KSE1 062150Z 17011G16KT 38/16 A2991 RMK A01 T03770156  RH  028%=      5-min Rain = 0
KSE1 062155Z 17012KT 37/16 A299 RMK A01 T03730156  RH  029%=      5-min Rain = 0
KSE1 062200Z 18011G16KT 37/16 A299 RMK A01 T03690158  RH  030%=      5-min Rain = 0
KSE1 062205Z 16011KT 37/15 A299 RMK A01 T03710152  RH  029%=      5-min Rain = 0
KSE1 062210Z 17012KT 38/16 A2989 RMK A01 T03750156  RH  029%=      5-min Rain = 0
KSE1 062215Z 15012KT 38/16 A2989 RMK A01 T03840157  RH  028%=      5-min Rain = 0
KSE1 062220Z 16013KT 38/16 A2989 RMK A01 T03840157  RH  028%=      5-min Rain = 0
KSE1 062225Z 14014G20KT 38/16 A2988 RMK A01 T03750155  RH  029%=      5-min Rain = 0
KSE1 062230Z 15014G20KT 38/16 A2988 RMK A01 T03770157  RH  029%=      5-min Rain = 0
KSE1 062235Z 15014KT 38/16 A2988 RMK A01 T03760158  RH  029%=      5-min Rain = 0
KSE1 062240Z 15013G18KT 38/16 A2988 RMK A01 T03750157  RH  029%=      5-min Rain = 0
KSE1 062245Z 14012G17KT 37/16 A2987 RMK A01 T03710157  RH  029%=      5-min Rain = 0
KSE1 062250Z 14011KT 38/16 A2987 RMK A01 T03820162  RH  029%=      5-min Rain = 0
KSE1 062255Z 15013KT 38/16 A2987 RMK A01 T03810158  RH  028%=      5-min Rain = 0
KSE1 062300Z 15014KT 38/16 A2987 RMK A01 T03790157  RH  028%=      5-min Rain = 0
KSE1 062305Z 15012G17KT 38/16 A2988 RMK A01 T03800159  RH  028%=      5-min Rain = 0
KSE1 062310Z 15014KT 38/16 A2987 RMK A01 T03790162  RH  029%=      5-min Rain = 0
KSE1 062315Z 14014G20KT 38/17 A2987 RMK A01 T03780165  RH  030%=      5-min Rain = 0
KSE1 062320Z 14012KT 38/17 A2987 RMK A01 T03770166  RH  030%=      5-min Rain = 0
KSE1 062325Z 16013G18KT 38/16 A2987 RMK A01 T03770164  RH  030%=      5-min Rain = 0
KSE1 062330Z 17012G17KT 37/17 A2987 RMK A01 T03720168  RH  032%=      5-min Rain = 0
KSE1 062335Z 18011G17KT 37/17 A2987 RMK A01 T03690172  RH  033%=      5-min Rain = 0
KSE1 062340Z 17011G16KT 37/17 A2987 RMK A01 T03710172  RH  033%=      5-min Rain = 0
KSE1 062345Z 17010KT 37/17 A2987 RMK A01 T03700173  RH  033%=      5-min Rain = 0
KSE1 062350Z 17009KT 37/17 A2987 RMK A01 T03680172  RH  033%=      5-min Rain = 0
KSE1 062355Z 17010KT 37/17 A2987 RMK A01 T03670171  RH  033%=      5-min Rain = 0
KSE1 070000Z 17010KT 37/17 A2987 RMK A01 T03670168  RH  033%=      5-min Rain = 0
KSE1 070005Z 16009KT 37/17 A2987 RMK A01 T03660168  RH  033%=      5-min Rain = 0
KSE1 070010Z 16009KT 37/17 A2987 RMK A01 T03660167  RH  033%=      5-min Rain = 0
KSE1 070015Z 16009KT 37/17 A2987 RMK A01 T03660166  RH  032%=      5-min Rain = 0
KSE1 070020Z 16008KT 37/17 A2987 RMK A01 T03650165  RH  032%=      5-min Rain = 0
KSE1 070025Z 15009KT 37/16 A2986 RMK A01 T03650162  RH  032%=      5-min Rain = 0
KSE1 070030Z 16007G12KT 37/16 A2986 RMK A01 T03650163  RH  032%=      5-min Rain = 0
KSE1 070035Z 15009KT 36/16 A2986 RMK A01 T03640156  RH  031%=      5-min Rain = 0
KSE1 070040Z 15011KT 36/15 A2986 RMK A01 T03630153  RH  030%=      5-min Rain = 0
KSE1 070045Z 14008KT 36/16 A2986 RMK A01 T03620155  RH  031%=      5-min Rain = 0
KSE1 070050Z 14009KT 36/16 A2986 RMK A01 T03600155  RH  031%=      5-min Rain = 0
KSE1 070055Z 14008KT 36/15 A2986 RMK A01 T03580154  RH  031%=      5-min Rain = 0
KSE1 070100Z 13008KT 35/16 A2986 RMK A01 T03530155  RH  032%=      5-min Rain = 0
KSE1 070105Z 13010KT 35/15 A2986 RMK A01 T03510149  RH  031%=      5-min Rain = 0
KSE1 070110Z 12010KT 35/15 A2986 RMK A01 T03460149  RH  032%=      5-min Rain = 0
KSE1 070115Z 13011KT 35/15 A2986 RMK A01 T03450146  RH  032%=      5-min Rain = 0
KSE1 070120Z 13009G14KT 34/15 A2986 RMK A01 T03410146  RH  032%=      5-min Rain = 0
KSE1 070125Z 13009KT 34/15 A2986 RMK A01 T03390145  RH  033%=      5-min Rain = 0
KSE1 070130Z 13009KT 34/15 A2986 RMK A01 T03350146  RH  034%=      5-min Rain = 0
KSE1 070135Z 13009KT 33/15 A2986 RMK A01 T03320146  RH  034%=      5-min Rain = 0
KSE1 070140Z 13009KT 33/15 A2986 RMK A01 T03300147  RH  035%=      5-min Rain = 0
KSE1 070145Z 12009KT 33/15 A2986 RMK A01 T03280147  RH  035%=      5-min Rain = 0
KSE1 070150Z 12009KT 33/15 A2986 RMK A01 T03270148  RH  036%=      5-min Rain = 0
KSE1 070155Z 12009KT 33/15 A2987 RMK A01 T03250149  RH  036%=      5-min Rain = 0
KSE1 070200Z 12009KT 32/15 A2987 RMK A01 T03220151  RH  037%=      5-min Rain = 0
KSE1 070205Z 12008KT 32/15 A2987 RMK A01 T03160153  RH  039%=      5-min Rain = 0
KSE1 070210Z 12008KT 31/15 A2987 RMK A01 T03120154  RH  040%=      5-min Rain = 0
KSE1 070215Z 12008KT 31/16 A2987 RMK A01 T03110155  RH  041%=      5-min Rain = 0
KSE1 070220Z 12008KT 31/16 A2987 RMK A01 T03120156  RH  041%=      5-min Rain = 0
KSE1 070225Z 13009KT 31/16 A2987 RMK A01 T03140156  RH  040%=      5-min Rain = 0
KSE1 070230Z 13011KT 32/16 A2988 RMK A01 T03180156  RH  039%=      5-min Rain = 0
KSE1 070235Z 13010KT 32/16 A2988 RMK A01 T03200157  RH  039%=      5-min Rain = 0
KSE1 070240Z 13010KT 32/16 A2988 RMK A01 T03190158  RH  040%=      5-min Rain = 0
KSE1 070245Z 13010KT 32/16 A2988 RMK A01 T03180158  RH  040%=      5-min Rain = 0
KSE1 070250Z 14010KT 32/16 A2989 RMK A01 T03180160  RH  040%=      5-min Rain = 0
KSE1 070255Z 13010KT 32/16 A2989 RMK A01 T03160160  RH  041%=      5-min Rain = 0
KSE1 070300Z 14010KT 32/16 A2989 RMK A01 T03150161  RH  041%=      5-min Rain = 0
KSE1 070305Z 14009KT 31/16 A2989 RMK A01 T03140161  RH  042%=      5-min Rain = 0
KSE1 070310Z 14009KT 31/16 A2989 RMK A01 T03130160  RH  042%=      5-min Rain = 0
KSE1 070315Z 14009KT 31/16 A2989 RMK A01 T03130160  RH  042%=      5-min Rain = 0
KSE1 070320Z 14010KT 31/16 A2988 RMK A01 T03130159  RH  041%=      5-min Rain = 0
KSE1 070325Z 14010KT 31/16 A2988 RMK A01 T03140158  RH  041%=      5-min Rain = 0
KSE1 070330Z 15011KT 31/16 A2988 RMK A01 T03140157  RH  041%=      5-min Rain = 0
KSE1 070335Z 15011KT 31/16 A2988 RMK A01 T03140157  RH  040%=      5-min Rain = 0
KSE1 070340Z 15011KT 31/16 A2988 RMK A01 T03130156  RH  041%=      5-min Rain = 0
KSE1 070345Z 15011G17KT 31/16 A2988 RMK A01 T03120155  RH  041%=      5-min Rain = 0
KSE1 070350Z 15011G18KT 31/15 A2988 RMK A01 T03120154  RH  040%=      5-min Rain = 0
KSE1 070355Z 15011G16KT 31/15 A2988 RMK A01 T03120154  RH  040%=      5-min Rain = 0
KSE1 070400Z 15011G16KT 31/15 A2989 RMK A01 T03120153  RH  040%=      5-min Rain = 0
KSE1 070405Z 15011KT 31/15 A2989 RMK A01 T03110153  RH  040%=      5-min Rain = 0
KSE1 070410Z 15010G16KT 31/15 A2989 RMK A01 T03090152  RH  041%=      5-min Rain = 0
KSE1 070415Z 15011KT 31/15 A2989 RMK A01 T03080152  RH  041%=      5-min Rain = 0
KSE1 070420Z 15011KT 31/15 A2989 RMK A01 T03070152  RH  041%=      5-min Rain = 0
KSE1 070425Z 15011KT 31/15 A2989 RMK A01 T03060151  RH  041%=      5-min Rain = 0
KSE1 070430Z 15012KT 31/15 A2989 RMK A01 T03070150  RH  040%=      5-min Rain = 0
KSE1 070435Z 15011KT 31/15 A2989 RMK A01 T03060150  RH  040%=      5-min Rain = 0
KSE1 070440Z 15011G17KT 31/15 A2989 RMK A01 T03060149  RH  040%=      5-min Rain = 0
KSE1 070445Z 15011KT 31/15 A2989 RMK A01 T03060149  RH  040%=      5-min Rain = 0
KSE1 070450Z 15011G16KT 31/15 A299 RMK A01 T03060149  RH  040%=      5-min Rain = 0
KSE1 070455Z 15012G17KT 31/15 A299 RMK A01 T03050149  RH  040%=      5-min Rain = 0

Page generated in 0.0089 seconds.